sensor_id;sensor_type;location;lat;lon;timestamp;temperature;humidity
56298;DHT22;42208;6.376;-10.782;2023-12-22T00:01:35;25.60;99.90
56298;DHT22;42208;6.376;-10.782;2023-12-22T00:04:03;25.60;99.90
56298;DHT22;42208;6.376;-10.782;2023-12-22T00:06:32;25.60;99.90
56298;DHT22;42208;6.376;-10.782;2023-12-22T00:09:00;25.60;99.90
56298;DHT22;42208;6.376;-10.782;2023-12-22T00:11:29;25.60;99.90
56298;DHT22;42208;6.376;-10.782;2023-12-22T00:13:57;25.60;99.90
56298;DHT22;42208;6.376;-10.782;2023-12-22T00:16:27;25.60;99.90
56298;DHT22;42208;6.376;-10.782;2023-12-22T00:18:55;25.50;99.90
56298;DHT22;42208;6.376;-10.782;2023-12-22T00:21:24;25.50;99.90
56298;DHT22;42208;6.376;-10.782;2023-12-22T00:23:52;25.50;99.90
56298;DHT22;42208;6.376;-10.782;2023-12-22T00:26:21;25.50;99.90
56298;DHT22;42208;6.376;-10.782;2023-12-22T00:28:49;25.50;99.90
56298;DHT22;42208;6.376;-10.782;2023-12-22T00:31:17;25.40;99.90
56298;DHT22;42208;6.376;-10.782;2023-12-22T00:33:46;25.40;99.90
56298;DHT22;42208;6.376;-10.782;2023-12-22T00:36:14;25.40;99.90
56298;DHT22;42208;6.376;-10.782;2023-12-22T00:38:43;25.40;99.90
56298;DHT22;42208;6.376;-10.782;2023-12-22T00:41:11;25.30;99.90
56298;DHT22;42208;6.376;-10.782;2023-12-22T00:43:39;25.30;99.90
56298;DHT22;42208;6.376;-10.782;2023-12-22T00:46:08;25.30;99.90
56298;DHT22;42208;6.376;-10.782;2023-12-22T00:48:36;25.30;99.90
56298;DHT22;42208;6.376;-10.782;2023-12-22T00:51:06;25.30;99.90
56298;DHT22;42208;6.376;-10.782;2023-12-22T00:53:34;25.40;99.90
56298;DHT22;42208;6.376;-10.782;2023-12-22T00:56:03;25.40;99.90
56298;DHT22;42208;6.376;-10.782;2023-12-22T00:58:31;25.40;99.90
56298;DHT22;42208;6.376;-10.782;2023-12-22T01:01:00;25.40;99.90
56298;DHT22;42208;6.376;-10.782;2023-12-22T01:03:29;25.40;99.90
56298;DHT22;42208;6.376;-10.782;2023-12-22T01:05:57;25.30;99.90
56298;DHT22;42208;6.376;-10.782;2023-12-22T01:08:26;25.30;99.90
56298;DHT22;42208;6.376;-10.782;2023-12-22T01:10:55;25.20;99.90
56298;DHT22;42208;6.376;-10.782;2023-12-22T01:13:23;25.20;99.90
56298;DHT22;42208;6.376;-10.782;2023-12-22T01:15:51;25.10;99.90
56298;DHT22;42208;6.376;-10.782;2023-12-22T01:18:20;25.20;99.90
56298;DHT22;42208;6.376;-10.782;2023-12-22T01:20:48;25.20;99.90
56298;DHT22;42208;6.376;-10.782;2023-12-22T01:23:17;25.20;99.90
56298;DHT22;42208;6.376;-10.782;2023-12-22T01:25:45;25.20;99.90
56298;DHT22;42208;6.376;-10.782;2023-12-22T01:28:14;25.10;99.90
56298;DHT22;42208;6.376;-10.782;2023-12-22T01:30:42;25.10;99.90
56298;DHT22;42208;6.376;-10.782;2023-12-22T01:33:10;25.00;99.90
56298;DHT22;42208;6.376;-10.782;2023-12-22T01:35:39;25.00;99.90
56298;DHT22;42208;6.376;-10.782;2023-12-22T01:38:08;25.00;99.90
56298;DHT22;42208;6.376;-10.782;2023-12-22T01:40:36;24.90;99.90
56298;DHT22;42208;6.376;-10.782;2023-12-22T01:43:04;24.80;99.90
56298;DHT22;42208;6.376;-10.782;2023-12-22T01:45:33;24.80;99.90
56298;DHT22;42208;6.376;-10.782;2023-12-22T01:48:02;24.70;99.90
56298;DHT22;42208;6.376;-10.782;2023-12-22T01:50:31;24.60;99.90
56298;DHT22;42208;6.376;-10.782;2023-12-22T01:53:00;24.70;99.90
56298;DHT22;42208;6.376;-10.782;2023-12-22T01:55:29;24.60;99.90
56298;DHT22;42208;6.376;-10.782;2023-12-22T01:57:57;24.70;99.90
56298;DHT22;42208;6.376;-10.782;2023-12-22T02:00:26;24.60;99.90
56298;DHT22;42208;6.376;-10.782;2023-12-22T02:02:55;24.60;99.90
56298;DHT22;42208;6.376;-10.782;2023-12-22T02:05:23;24.50;99.90
56298;DHT22;42208;6.376;-10.782;2023-12-22T02:07:52;24.50;99.90
56298;DHT22;42208;6.376;-10.782;2023-12-22T02:10:20;24.50;99.90
56298;DHT22;42208;6.376;-10.782;2023-12-22T02:12:49;24.60;99.90
56298;DHT22;42208;6.376;-10.782;2023-12-22T02:15:18;24.50;99.90
56298;DHT22;42208;6.376;-10.782;2023-12-22T02:18:09;24.50;99.90
56298;DHT22;42208;6.376;-10.782;2023-12-22T02:20:38;24.50;99.90
56298;DHT22;42208;6.376;-10.782;2023-12-22T02:23:07;24.50;99.90
56298;DHT22;42208;6.376;-10.782;2023-12-22T02:25:35;24.50;99.90
56298;DHT22;42208;6.376;-10.782;2023-12-22T02:28:13;24.50;99.90
56298;DHT22;42208;6.376;-10.782;2023-12-22T02:31:09;24.50;99.90
56298;DHT22;42208;6.376;-10.782;2023-12-22T02:33:41;24.50;99.90
56298;DHT22;42208;6.376;-10.782;2023-12-22T02:36:11;24.40;99.90
56298;DHT22;42208;6.376;-10.782;2023-12-22T02:38:42;24.40;99.90
56298;DHT22;42208;6.376;-10.782;2023-12-22T02:41:12;24.50;99.90
56298;DHT22;42208;6.376;-10.782;2023-12-22T02:43:41;24.50;99.90
56298;DHT22;42208;6.376;-10.782;2023-12-22T02:46:13;24.50;99.90
56298;DHT22;42208;6.376;-10.782;2023-12-22T02:48:42;24.50;99.90
56298;DHT22;42208;6.376;-10.782;2023-12-22T02:51:11;24.40;99.90
56298;DHT22;42208;6.376;-10.782;2023-12-22T02:53:39;24.40;99.90
56298;DHT22;42208;6.376;-10.782;2023-12-22T02:56:07;24.40;99.90
56298;DHT22;42208;6.376;-10.782;2023-12-22T02:58:36;24.40;99.90
56298;DHT22;42208;6.376;-10.782;2023-12-22T03:01:04;24.40;99.90
56298;DHT22;42208;6.376;-10.782;2023-12-22T03:03:33;24.40;99.90
56298;DHT22;42208;6.376;-10.782;2023-12-22T03:06:01;24.40;99.90
56298;DHT22;42208;6.376;-10.782;2023-12-22T03:08:29;24.40;99.90
56298;DHT22;42208;6.376;-10.782;2023-12-22T03:10:58;24.40;99.90
56298;DHT22;42208;6.376;-10.782;2023-12-22T03:13:26;24.40;99.90
56298;DHT22;42208;6.376;-10.782;2023-12-22T03:15:54;24.40;99.90
56298;DHT22;42208;6.376;-10.782;2023-12-22T03:18:23;24.30;99.90
56298;DHT22;42208;6.376;-10.782;2023-12-22T03:20:51;24.40;99.90
56298;DHT22;42208;6.376;-10.782;2023-12-22T03:23:20;24.20;99.90
56298;DHT22;42208;6.376;-10.782;2023-12-22T03:25:48;24.20;99.90
56298;DHT22;42208;6.376;-10.782;2023-12-22T03:28:16;24.20;99.90
56298;DHT22;42208;6.376;-10.782;2023-12-22T03:30:45;24.20;99.90
56298;DHT22;42208;6.376;-10.782;2023-12-22T03:33:13;24.20;99.90
56298;DHT22;42208;6.376;-10.782;2023-12-22T03:35:42;24.20;99.90
56298;DHT22;42208;6.376;-10.782;2023-12-22T03:38:10;24.20;99.90
56298;DHT22;42208;6.376;-10.782;2023-12-22T03:40:38;24.20;99.90
56298;DHT22;42208;6.376;-10.782;2023-12-22T03:43:07;24.20;99.90
56298;DHT22;42208;6.376;-10.782;2023-12-22T03:45:35;24.20;99.90
56298;DHT22;42208;6.376;-10.782;2023-12-22T03:48:04;24.20;99.90
56298;DHT22;42208;6.376;-10.782;2023-12-22T03:50:32;24.20;99.90
56298;DHT22;42208;6.376;-10.782;2023-12-22T03:53:00;24.20;99.90
56298;DHT22;42208;6.376;-10.782;2023-12-22T03:55:29;24.20;99.90
56298;DHT22;42208;6.376;-10.782;2023-12-22T03:57:57;24.30;99.90
56298;DHT22;42208;6.376;-10.782;2023-12-22T04:00:26;24.30;99.90
56298;DHT22;42208;6.376;-10.782;2023-12-22T04:02:54;24.30;99.90
56298;DHT22;42208;6.376;-10.782;2023-12-22T04:05:24;24.30;99.90
56298;DHT22;42208;6.376;-10.782;2023-12-22T04:07:53;24.40;99.90
56298;DHT22;42208;6.376;-10.782;2023-12-22T04:10:21;24.30;99.90
56298;DHT22;42208;6.376;-10.782;2023-12-22T04:12:50;24.20;99.90
56298;DHT22;42208;6.376;-10.782;2023-12-22T04:15:18;24.30;99.90
56298;DHT22;42208;6.376;-10.782;2023-12-22T04:17:46;24.20;99.90
56298;DHT22;42208;6.376;-10.782;2023-12-22T04:20:15;24.20;99.90
56298;DHT22;42208;6.376;-10.782;2023-12-22T04:22:44;24.20;99.90
56298;DHT22;42208;6.376;-10.782;2023-12-22T04:25:12;24.20;99.90
56298;DHT22;42208;6.376;-10.782;2023-12-22T04:27:41;24.10;99.90
56298;DHT22;42208;6.376;-10.782;2023-12-22T04:30:09;24.10;99.90
56298;DHT22;42208;6.376;-10.782;2023-12-22T04:32:38;24.00;99.90
56298;DHT22;42208;6.376;-10.782;2023-12-22T04:35:07;24.10;99.90
56298;DHT22;42208;6.376;-10.782;2023-12-22T04:37:35;24.10;99.90
56298;DHT22;42208;6.376;-10.782;2023-12-22T04:40:04;24.00;99.90
56298;DHT22;42208;6.376;-10.782;2023-12-22T04:42:32;23.90;99.90
56298;DHT22;42208;6.376;-10.782;2023-12-22T04:45:01;23.90;99.90
56298;DHT22;42208;6.376;-10.782;2023-12-22T04:47:29;23.90;99.90
56298;DHT22;42208;6.376;-10.782;2023-12-22T04:49:57;23.90;99.90
56298;DHT22;42208;6.376;-10.782;2023-12-22T04:52:26;23.80;99.90
56298;DHT22;42208;6.376;-10.782;2023-12-22T04:54:54;23.80;99.90
56298;DHT22;42208;6.376;-10.782;2023-12-22T04:57:22;23.80;99.90
56298;DHT22;42208;6.376;-10.782;2023-12-22T04:59:51;23.80;99.90
56298;DHT22;42208;6.376;-10.782;2023-12-22T05:02:19;23.80;99.90
56298;DHT22;42208;6.376;-10.782;2023-12-22T05:04:47;23.80;99.90
56298;DHT22;42208;6.376;-10.782;2023-12-22T05:07:16;23.80;99.90
56298;DHT22;42208;6.376;-10.782;2023-12-22T05:09:44;23.80;99.90
56298;DHT22;42208;6.376;-10.782;2023-12-22T05:12:13;23.80;99.90
56298;DHT22;42208;6.376;-10.782;2023-12-22T05:14:47;23.80;99.90
56298;DHT22;42208;6.376;-10.782;2023-12-22T05:17:15;23.80;99.90
56298;DHT22;42208;6.376;-10.782;2023-12-22T05:19:43;23.80;99.90
56298;DHT22;42208;6.376;-10.782;2023-12-22T05:22:12;23.80;99.90
56298;DHT22;42208;6.376;-10.782;2023-12-22T05:24:40;23.70;99.90
56298;DHT22;42208;6.376;-10.782;2023-12-22T05:27:08;23.70;99.90
56298;DHT22;42208;6.376;-10.782;2023-12-22T05:29:37;23.70;99.90
56298;DHT22;42208;6.376;-10.782;2023-12-22T05:32:06;23.80;99.90
56298;DHT22;42208;6.376;-10.782;2023-12-22T05:34:34;23.70;99.90
56298;DHT22;42208;6.376;-10.782;2023-12-22T05:37:03;23.70;99.90
56298;DHT22;42208;6.376;-10.782;2023-12-22T05:39:31;23.70;99.90
56298;DHT22;42208;6.376;-10.782;2023-12-22T05:41:59;23.70;99.90
56298;DHT22;42208;6.376;-10.782;2023-12-22T05:44:28;23.70;99.90
56298;DHT22;42208;6.376;-10.782;2023-12-22T05:46:59;23.60;99.90
56298;DHT22;42208;6.376;-10.782;2023-12-22T05:49:27;23.70;99.90
56298;DHT22;42208;6.376;-10.782;2023-12-22T05:51:56;23.70;99.90
56298;DHT22;42208;6.376;-10.782;2023-12-22T05:54:24;23.70;99.90
56298;DHT22;42208;6.376;-10.782;2023-12-22T05:56:52;23.60;99.90
56298;DHT22;42208;6.376;-10.782;2023-12-22T05:59:24;23.60;99.90
56298;DHT22;42208;6.376;-10.782;2023-12-22T06:01:56;23.50;99.90
56298;DHT22;42208;6.376;-10.782;2023-12-22T06:04:25;23.50;99.90
56298;DHT22;42208;6.376;-10.782;2023-12-22T06:06:53;23.50;99.90
56298;DHT22;42208;6.376;-10.782;2023-12-22T06:09:22;23.60;99.90
56298;DHT22;42208;6.376;-10.782;2023-12-22T06:11:50;23.50;99.90
56298;DHT22;42208;6.376;-10.782;2023-12-22T06:14:18;23.60;99.90
56298;DHT22;42208;6.376;-10.782;2023-12-22T06:16:47;23.60;99.90
56298;DHT22;42208;6.376;-10.782;2023-12-22T06:19:15;23.60;99.90
56298;DHT22;42208;6.376;-10.782;2023-12-22T06:21:44;23.60;99.90
56298;DHT22;42208;6.376;-10.782;2023-12-22T06:24:12;23.60;99.90
56298;DHT22;42208;6.376;-10.782;2023-12-22T06:26:40;23.60;99.90
56298;DHT22;42208;6.376;-10.782;2023-12-22T06:29:09;23.60;99.90
56298;DHT22;42208;6.376;-10.782;2023-12-22T06:31:37;23.60;99.90
56298;DHT22;42208;6.376;-10.782;2023-12-22T06:34:05;23.60;99.90
56298;DHT22;42208;6.376;-10.782;2023-12-22T06:36:34;23.60;99.90
56298;DHT22;42208;6.376;-10.782;2023-12-22T06:39:02;23.60;99.90
56298;DHT22;42208;6.376;-10.782;2023-12-22T06:41:31;23.70;99.90
56298;DHT22;42208;6.376;-10.782;2023-12-22T06:43:59;23.60;99.90
56298;DHT22;42208;6.376;-10.782;2023-12-22T06:46:29;23.60;99.90
56298;DHT22;42208;6.376;-10.782;2023-12-22T06:48:57;23.60;99.90
56298;DHT22;42208;6.376;-10.782;2023-12-22T06:51:30;23.60;99.90
56298;DHT22;42208;6.376;-10.782;2023-12-22T06:53:59;23.50;99.90
56298;DHT22;42208;6.376;-10.782;2023-12-22T06:56:32;23.50;99.90
56298;DHT22;42208;6.376;-10.782;2023-12-22T06:59:01;23.50;99.90
56298;DHT22;42208;6.376;-10.782;2023-12-22T07:01:31;23.40;99.90
56298;DHT22;42208;6.376;-10.782;2023-12-22T07:04:03;23.40;99.90
56298;DHT22;42208;6.376;-10.782;2023-12-22T07:06:33;23.40;99.90
56298;DHT22;42208;6.376;-10.782;2023-12-22T07:11:44;23.40;99.90
56298;DHT22;42208;6.376;-10.782;2023-12-22T07:14:12;23.40;99.90
56298;DHT22;42208;6.376;-10.782;2023-12-22T07:16:41;23.40;99.90
56298;DHT22;42208;6.376;-10.782;2023-12-22T07:19:10;23.40;99.90
56298;DHT22;42208;6.376;-10.782;2023-12-22T07:21:39;23.40;99.90
56298;DHT22;42208;6.376;-10.782;2023-12-22T07:24:10;23.40;99.90
56298;DHT22;42208;6.376;-10.782;2023-12-22T07:26:39;23.30;99.90
56298;DHT22;42208;6.376;-10.782;2023-12-22T07:29:08;23.30;99.90
56298;DHT22;42208;6.376;-10.782;2023-12-22T07:31:36;23.30;99.90
56298;DHT22;42208;6.376;-10.782;2023-12-22T07:34:04;23.40;99.90
56298;DHT22;42208;6.376;-10.782;2023-12-22T07:36:35;23.50;99.90
56298;DHT22;42208;6.376;-10.782;2023-12-22T07:39:14;23.50;99.90
56298;DHT22;42208;6.376;-10.782;2023-12-22T07:41:44;23.50;99.90
56298;DHT22;42208;6.376;-10.782;2023-12-22T07:44:12;23.60;99.90
56298;DHT22;42208;6.376;-10.782;2023-12-22T07:46:41;23.60;99.90
56298;DHT22;42208;6.376;-10.782;2023-12-22T07:49:10;23.70;99.90
56298;DHT22;42208;6.376;-10.782;2023-12-22T07:51:39;23.80;99.90
56298;DHT22;42208;6.376;-10.782;2023-12-22T07:54:08;23.80;99.90
56298;DHT22;42208;6.376;-10.782;2023-12-22T07:56:36;23.80;99.90
56298;DHT22;42208;6.376;-10.782;2023-12-22T07:59:05;23.80;99.90
56298;DHT22;42208;6.376;-10.782;2023-12-22T08:01:53;23.80;99.90
56298;DHT22;42208;6.376;-10.782;2023-12-22T08:04:21;23.90;99.90
56298;DHT22;42208;6.376;-10.782;2023-12-22T08:06:50;24.00;99.90
56298;DHT22;42208;6.376;-10.782;2023-12-22T08:09:18;23.90;99.90
56298;DHT22;42208;6.376;-10.782;2023-12-22T08:11:50;24.00;99.90
56298;DHT22;42208;6.376;-10.782;2023-12-22T08:14:22;24.00;99.90
56298;DHT22;42208;6.376;-10.782;2023-12-22T08:16:52;24.00;99.90
56298;DHT22;42208;6.376;-10.782;2023-12-22T08:19:22;24.10;99.90
56298;DHT22;42208;6.376;-10.782;2023-12-22T08:21:54;24.20;99.90
56298;DHT22;42208;6.376;-10.782;2023-12-22T08:24:25;24.20;99.90
56298;DHT22;42208;6.376;-10.782;2023-12-22T08:26:54;24.30;99.90
56298;DHT22;42208;6.376;-10.782;2023-12-22T08:29:23;24.40;99.90
56298;DHT22;42208;6.376;-10.782;2023-12-22T08:31:51;24.40;99.90
56298;DHT22;42208;6.376;-10.782;2023-12-22T08:34:20;24.50;99.90
56298;DHT22;42208;6.376;-10.782;2023-12-22T08:36:48;24.60;99.90
56298;DHT22;42208;6.376;-10.782;2023-12-22T08:39:16;24.70;99.90
56298;DHT22;42208;6.376;-10.782;2023-12-22T08:41:46;24.70;99.90
56298;DHT22;42208;6.376;-10.782;2023-12-22T08:44:15;24.70;99.90
56298;DHT22;42208;6.376;-10.782;2023-12-22T08:46:43;24.80;99.90
56298;DHT22;42208;6.376;-10.782;2023-12-22T08:49:12;24.90;99.90
56298;DHT22;42208;6.376;-10.782;2023-12-22T08:51:41;24.90;99.90
56298;DHT22;42208;6.376;-10.782;2023-12-22T08:54:10;24.90;99.90
56298;DHT22;42208;6.376;-10.782;2023-12-22T08:56:39;24.90;99.90
56298;DHT22;42208;6.376;-10.782;2023-12-22T08:59:07;25.00;99.90
56298;DHT22;42208;6.376;-10.782;2023-12-22T09:01:36;25.00;99.90
56298;DHT22;42208;6.376;-10.782;2023-12-22T09:04:06;25.10;99.90
56298;DHT22;42208;6.376;-10.782;2023-12-22T09:06:36;25.20;99.90
56298;DHT22;42208;6.376;-10.782;2023-12-22T09:09:05;25.20;99.90
56298;DHT22;42208;6.376;-10.782;2023-12-22T09:11:33;25.30;99.90
56298;DHT22;42208;6.376;-10.782;2023-12-22T09:14:01;25.30;99.90
56298;DHT22;42208;6.376;-10.782;2023-12-22T09:16:30;25.40;99.90
56298;DHT22;42208;6.376;-10.782;2023-12-22T09:18:58;25.50;99.90
56298;DHT22;42208;6.376;-10.782;2023-12-22T09:21:27;25.50;99.90
56298;DHT22;42208;6.376;-10.782;2023-12-22T09:23:56;25.60;99.90
56298;DHT22;42208;6.376;-10.782;2023-12-22T09:26:25;25.70;99.90
56298;DHT22;42208;6.376;-10.782;2023-12-22T09:28:58;25.70;99.90
56298;DHT22;42208;6.376;-10.782;2023-12-22T09:31:26;25.80;99.90
56298;DHT22;42208;6.376;-10.782;2023-12-22T09:33:55;25.90;99.90
56298;DHT22;42208;6.376;-10.782;2023-12-22T09:36:23;25.90;99.90
56298;DHT22;42208;6.376;-10.782;2023-12-22T09:38:52;25.90;99.90
56298;DHT22;42208;6.376;-10.782;2023-12-22T09:41:20;25.90;99.90
56298;DHT22;42208;6.376;-10.782;2023-12-22T09:43:50;26.10;99.90
56298;DHT22;42208;6.376;-10.782;2023-12-22T09:46:21;26.10;99.90
56298;DHT22;42208;6.376;-10.782;2023-12-22T09:48:51;26.20;99.90
56298;DHT22;42208;6.376;-10.782;2023-12-22T09:51:21;26.30;99.90
56298;DHT22;42208;6.376;-10.782;2023-12-22T09:53:52;26.30;99.90
56298;DHT22;42208;6.376;-10.782;2023-12-22T09:56:21;26.30;99.90
56298;DHT22;42208;6.376;-10.782;2023-12-22T09:58:50;26.30;99.90
56298;DHT22;42208;6.376;-10.782;2023-12-22T10:01:20;26.50;99.90
56298;DHT22;42208;6.376;-10.782;2023-12-22T10:03:50;26.50;99.90
56298;DHT22;42208;6.376;-10.782;2023-12-22T10:06:18;26.60;99.90
56298;DHT22;42208;6.376;-10.782;2023-12-22T10:08:47;26.60;99.90
56298;DHT22;42208;6.376;-10.782;2023-12-22T10:11:17;26.60;99.90
56298;DHT22;42208;6.376;-10.782;2023-12-22T10:13:49;26.70;99.90
56298;DHT22;42208;6.376;-10.782;2023-12-22T10:16:18;26.70;99.90
56298;DHT22;42208;6.376;-10.782;2023-12-22T10:18:47;26.80;99.90
56298;DHT22;42208;6.376;-10.782;2023-12-22T10:21:15;26.90;99.90
56298;DHT22;42208;6.376;-10.782;2023-12-22T10:23:44;26.90;99.90
56298;DHT22;42208;6.376;-10.782;2023-12-22T10:26:12;27.00;99.90
56298;DHT22;42208;6.376;-10.782;2023-12-22T10:28:41;27.00;99.90
56298;DHT22;42208;6.376;-10.782;2023-12-22T10:31:09;27.10;99.90
56298;DHT22;42208;6.376;-10.782;2023-12-22T10:33:38;27.10;99.90
56298;DHT22;42208;6.376;-10.782;2023-12-22T10:36:07;27.10;99.90
56298;DHT22;42208;6.376;-10.782;2023-12-22T10:38:37;27.20;99.90
56298;DHT22;42208;6.376;-10.782;2023-12-22T10:41:10;27.20;99.90
56298;DHT22;42208;6.376;-10.782;2023-12-22T10:43:40;27.20;99.90
56298;DHT22;42208;6.376;-10.782;2023-12-22T10:46:09;27.20;99.90
56298;DHT22;42208;6.376;-10.782;2023-12-22T10:48:37;27.30;99.90
56298;DHT22;42208;6.376;-10.782;2023-12-22T10:51:10;27.40;99.90
56298;DHT22;42208;6.376;-10.782;2023-12-22T10:53:42;27.40;99.90
56298;DHT22;42208;6.376;-10.782;2023-12-22T10:56:11;27.40;99.90
56298;DHT22;42208;6.376;-10.782;2023-12-22T10:58:40;27.40;99.90
56298;DHT22;42208;6.376;-10.782;2023-12-22T11:01:12;27.50;99.90
56298;DHT22;42208;6.376;-10.782;2023-12-22T11:03:44;27.50;99.90
56298;DHT22;42208;6.376;-10.782;2023-12-22T11:06:15;27.60;99.90
56298;DHT22;42208;6.376;-10.782;2023-12-22T11:08:46;27.60;99.90
56298;DHT22;42208;6.376;-10.782;2023-12-22T11:11:39;27.70;99.90
56298;DHT22;42208;6.376;-10.782;2023-12-22T11:14:08;27.70;99.90
56298;DHT22;42208;6.376;-10.782;2023-12-22T11:16:36;27.80;99.90
56298;DHT22;42208;6.376;-10.782;2023-12-22T11:19:05;27.90;99.90
56298;DHT22;42208;6.376;-10.782;2023-12-22T11:21:36;27.90;99.90
56298;DHT22;42208;6.376;-10.782;2023-12-22T11:24:05;28.00;99.90
56298;DHT22;42208;6.376;-10.782;2023-12-22T11:26:34;28.10;99.90
56298;DHT22;42208;6.376;-10.782;2023-12-22T11:29:03;28.10;99.90
56298;DHT22;42208;6.376;-10.782;2023-12-22T11:31:33;28.20;99.90
56298;DHT22;42208;6.376;-10.782;2023-12-22T11:34:02;28.20;99.90
56298;DHT22;42208;6.376;-10.782;2023-12-22T11:36:43;28.20;99.90
56298;DHT22;42208;6.376;-10.782;2023-12-22T11:39:13;28.20;99.90
56298;DHT22;42208;6.376;-10.782;2023-12-22T11:41:43;28.30;99.90
56298;DHT22;42208;6.376;-10.782;2023-12-22T11:44:13;28.30;99.90
56298;DHT22;42208;6.376;-10.782;2023-12-22T11:46:41;28.40;99.90
56298;DHT22;42208;6.376;-10.782;2023-12-22T11:49:10;28.50;99.90
56298;DHT22;42208;6.376;-10.782;2023-12-22T11:51:41;28.50;99.90
56298;DHT22;42208;6.376;-10.782;2023-12-22T11:59:58;28.70;99.90
56298;DHT22;42208;6.376;-10.782;2023-12-22T12:02:26;28.90;99.90
56298;DHT22;42208;6.376;-10.782;2023-12-22T12:04:58;28.90;99.90
56298;DHT22;42208;6.376;-10.782;2023-12-22T12:07:44;29.00;99.90
56298;DHT22;42208;6.376;-10.782;2023-12-22T12:13:23;29.10;99.90
56298;DHT22;42208;6.376;-10.782;2023-12-22T12:15:53;29.20;99.90
56298;DHT22;42208;6.376;-10.782;2023-12-22T12:18:23;29.30;99.90
56298;DHT22;42208;6.376;-10.782;2023-12-22T12:20:52;29.30;99.90
56298;DHT22;42208;6.376;-10.782;2023-12-22T12:23:23;29.40;99.90
56298;DHT22;42208;6.376;-10.782;2023-12-22T12:25:52;29.50;99.90
56298;DHT22;42208;6.376;-10.782;2023-12-22T12:28:31;29.60;99.90
56298;DHT22;42208;6.376;-10.782;2023-12-22T12:31:04;29.70;99.90
56298;DHT22;42208;6.376;-10.782;2023-12-22T12:33:33;29.80;99.90
56298;DHT22;42208;6.376;-10.782;2023-12-22T12:36:03;29.80;99.90
56298;DHT22;42208;6.376;-10.782;2023-12-22T12:39:09;29.90;99.90
56298;DHT22;42208;6.376;-10.782;2023-12-22T12:41:42;29.90;99.90
56298;DHT22;42208;6.376;-10.782;2023-12-22T12:44:11;30.00;99.90
56298;DHT22;42208;6.376;-10.782;2023-12-22T12:46:40;30.00;99.90
56298;DHT22;42208;6.376;-10.782;2023-12-22T12:49:10;30.10;99.90
56298;DHT22;42208;6.376;-10.782;2023-12-22T12:51:46;30.10;99.90
56298;DHT22;42208;6.376;-10.782;2023-12-22T12:54:15;30.20;99.90
56298;DHT22;42208;6.376;-10.782;2023-12-22T12:56:45;30.20;99.90
56298;DHT22;42208;6.376;-10.782;2023-12-22T12:59:15;30.20;99.90
56298;DHT22;42208;6.376;-10.782;2023-12-22T13:01:45;30.20;99.90
56298;DHT22;42208;6.376;-10.782;2023-12-22T13:04:15;30.30;99.90
56298;DHT22;42208;6.376;-10.782;2023-12-22T13:06:50;30.20;99.90
56298;DHT22;42208;6.376;-10.782;2023-12-22T13:09:19;30.30;99.90
56298;DHT22;42208;6.376;-10.782;2023-12-22T13:11:47;30.50;99.90
56298;DHT22;42208;6.376;-10.782;2023-12-22T13:14:22;30.60;99.90
56298;DHT22;42208;6.376;-10.782;2023-12-22T13:16:52;30.60;99.90
56298;DHT22;42208;6.376;-10.782;2023-12-22T13:19:21;30.80;99.90
56298;DHT22;42208;6.376;-10.782;2023-12-22T13:21:49;30.80;99.90
56298;DHT22;42208;6.376;-10.782;2023-12-22T13:24:18;30.80;99.90
56298;DHT22;42208;6.376;-10.782;2023-12-22T13:26:57;30.90;99.90
56298;DHT22;42208;6.376;-10.782;2023-12-22T13:29:26;31.00;99.90
56298;DHT22;42208;6.376;-10.782;2023-12-22T13:31:55;31.10;99.90
56298;DHT22;42208;6.376;-10.782;2023-12-22T13:34:24;31.10;99.90
56298;DHT22;42208;6.376;-10.782;2023-12-22T13:36:52;31.20;99.90
56298;DHT22;42208;6.376;-10.782;2023-12-22T13:39:27;31.20;99.90
56298;DHT22;42208;6.376;-10.782;2023-12-22T13:41:55;31.20;99.90
56298;DHT22;42208;6.376;-10.782;2023-12-22T13:44:26;31.30;99.90
56298;DHT22;42208;6.376;-10.782;2023-12-22T13:46:54;31.30;99.90
56298;DHT22;42208;6.376;-10.782;2023-12-22T13:49:23;31.40;99.90
56298;DHT22;42208;6.376;-10.782;2023-12-22T13:51:52;31.40;99.90
56298;DHT22;42208;6.376;-10.782;2023-12-22T13:54:20;31.50;99.90
56298;DHT22;42208;6.376;-10.782;2023-12-22T13:56:48;31.50;99.90
56298;DHT22;42208;6.376;-10.782;2023-12-22T13:59:17;31.60;99.90
56298;DHT22;42208;6.376;-10.782;2023-12-22T14:01:58;31.60;99.90
56298;DHT22;42208;6.376;-10.782;2023-12-22T14:04:27;31.70;99.90
56298;DHT22;42208;6.376;-10.782;2023-12-22T14:06:55;31.60;99.90
56298;DHT22;42208;6.376;-10.782;2023-12-22T14:09:23;31.70;99.90
56298;DHT22;42208;6.376;-10.782;2023-12-22T14:11:52;31.70;99.90
56298;DHT22;42208;6.376;-10.782;2023-12-22T14:14:31;31.70;99.90
56298;DHT22;42208;6.376;-10.782;2023-12-22T14:17:00;31.80;99.90
56298;DHT22;42208;6.376;-10.782;2023-12-22T14:19:29;31.90;99.90
56298;DHT22;42208;6.376;-10.782;2023-12-22T14:21:57;31.90;99.90
56298;DHT22;42208;6.376;-10.782;2023-12-22T14:24:25;31.90;99.90
56298;DHT22;42208;6.376;-10.782;2023-12-22T14:26:54;31.80;99.90
56298;DHT22;42208;6.376;-10.782;2023-12-22T14:29:23;32.00;99.90
56298;DHT22;42208;6.376;-10.782;2023-12-22T14:31:51;32.00;99.90
56298;DHT22;42208;6.376;-10.782;2023-12-22T14:34:20;32.10;99.90
56298;DHT22;42208;6.376;-10.782;2023-12-22T14:36:48;32.20;99.90
56298;DHT22;42208;6.376;-10.782;2023-12-22T14:39:16;32.20;99.90
56298;DHT22;42208;6.376;-10.782;2023-12-22T14:41:48;32.20;99.90
56298;DHT22;42208;6.376;-10.782;2023-12-22T14:44:17;32.30;99.90
56298;DHT22;42208;6.376;-10.782;2023-12-22T14:46:45;32.40;99.90
56298;DHT22;42208;6.376;-10.782;2023-12-22T14:49:14;32.40;99.90
56298;DHT22;42208;6.376;-10.782;2023-12-22T14:51:42;32.40;99.90
56298;DHT22;42208;6.376;-10.782;2023-12-22T14:54:11;32.50;99.90
56298;DHT22;42208;6.376;-10.782;2023-12-22T14:56:39;32.60;99.90
56298;DHT22;42208;6.376;-10.782;2023-12-22T14:59:11;32.60;99.90
56298;DHT22;42208;6.376;-10.782;2023-12-22T15:01:39;32.70;99.90
56298;DHT22;42208;6.376;-10.782;2023-12-22T15:04:08;32.70;99.90
56298;DHT22;42208;6.376;-10.782;2023-12-22T15:06:40;32.70;99.90
56298;DHT22;42208;6.376;-10.782;2023-12-22T15:09:09;32.70;99.90
56298;DHT22;42208;6.376;-10.782;2023-12-22T15:11:44;32.80;99.90
56298;DHT22;42208;6.376;-10.782;2023-12-22T15:14:13;32.80;99.90
56298;DHT22;42208;6.376;-10.782;2023-12-22T15:16:42;32.70;99.90
56298;DHT22;42208;6.376;-10.782;2023-12-22T15:19:11;32.40;99.90
56298;DHT22;42208;6.376;-10.782;2023-12-22T15:21:40;32.30;99.90
56298;DHT22;42208;6.376;-10.782;2023-12-22T15:24:08;32.30;99.90
56298;DHT22;42208;6.376;-10.782;2023-12-22T15:26:37;32.20;99.90
56298;DHT22;42208;6.376;-10.782;2023-12-22T15:29:08;32.20;99.90
56298;DHT22;42208;6.376;-10.782;2023-12-22T15:31:37;32.10;99.90
56298;DHT22;42208;6.376;-10.782;2023-12-22T15:34:06;32.10;99.90
56298;DHT22;42208;6.376;-10.782;2023-12-22T15:36:34;32.10;99.90
56298;DHT22;42208;6.376;-10.782;2023-12-22T15:39:03;32.00;99.90
56298;DHT22;42208;6.376;-10.782;2023-12-22T15:41:31;32.00;99.90